logo
Search for airport 
image banner adimage banner adimage banner ad
image banner ad

FLAD - Luwomba

Located in Kaleleka, Zambia

ICAO - , IATA -

Data provided by Airmate  

General information

Coordinates: S13°4'38" E29°55'39"
Elevation is 4210 feet MSL.
Magnetic variation is -4° East
View others Airports in Central Province

Operational data

Special qualification required
Current time UTC:
Current local time:
Weather at : - ( 0 km )
METAR: YPXM 202256Z AUTO 14005KT 6000 RA SCT002 BKN013 OVC048 24/24 Q1011
View NOTAMs / SUP AIP / TFR affecting this airport [VIEW]
Communications frequencies: [VIEW]

Runways:

RWY identifierQFULength (ft)Width (ft)SurfaceLDA (ft)
28277°392799DIRT
1097°392799DIRT

Airport contact information

Address: Kaleleka Zambia

Satellite view of FLAD